sensor_id;sensor_type;location;lat;lon;timestamp;temperature;humidity
24814;DHT22;12904;50.088;11.414;2022-07-23T00:00:02;19.60;89.30
24814;DHT22;12904;50.088;11.414;2022-07-23T00:02:28;19.60;90.00
24814;DHT22;12904;50.088;11.414;2022-07-23T00:04:54;19.60;90.10
24814;DHT22;12904;50.088;11.414;2022-07-23T00:07:19;19.60;90.00
24814;DHT22;12904;50.088;11.414;2022-07-23T00:09:45;19.60;90.20
24814;DHT22;12904;50.088;11.414;2022-07-23T00:12:11;19.70;90.30
24814;DHT22;12904;50.088;11.414;2022-07-23T00:14:36;19.70;90.50
24814;DHT22;12904;50.088;11.414;2022-07-23T00:17:02;19.70;90.90
24814;DHT22;12904;50.088;11.414;2022-07-23T00:19:28;19.80;91.20
24814;DHT22;12904;50.088;11.414;2022-07-23T00:21:54;19.80;91.70
24814;DHT22;12904;50.088;11.414;2022-07-23T00:24:20;19.80;91.70
24814;DHT22;12904;50.088;11.414;2022-07-23T00:26:45;19.80;92.00
24814;DHT22;12904;50.088;11.414;2022-07-23T00:29:11;19.80;92.00
24814;DHT22;12904;50.088;11.414;2022-07-23T00:31:37;19.80;92.20
24814;DHT22;12904;50.088;11.414;2022-07-23T00:34:03;19.80;92.60
24814;DHT22;12904;50.088;11.414;2022-07-23T00:36:28;19.80;92.70
24814;DHT22;12904;50.088;11.414;2022-07-23T00:38:56;19.80;92.80
24814;DHT22;12904;50.088;11.414;2022-07-23T00:41:22;19.80;92.80
24814;DHT22;12904;50.088;11.414;2022-07-23T00:43:48;19.70;92.90
24814;DHT22;12904;50.088;11.414;2022-07-23T00:46:22;19.70;92.90
24814;DHT22;12904;50.088;11.414;2022-07-23T00:48:48;19.70;93.00
24814;DHT22;12904;50.088;11.414;2022-07-23T00:51:15;19.70;93.20
24814;DHT22;12904;50.088;11.414;2022-07-23T00:53:42;19.70;93.70
24814;DHT22;12904;50.088;11.414;2022-07-23T00:56:07;19.70;93.80
24814;DHT22;12904;50.088;11.414;2022-07-23T00:58:35;19.60;94.20
24814;DHT22;12904;50.088;11.414;2022-07-23T01:01:01;19.60;94.20
24814;DHT22;12904;50.088;11.414;2022-07-23T01:03:27;19.60;94.30
24814;DHT22;12904;50.088;11.414;2022-07-23T01:05:53;19.50;95.00
24814;DHT22;12904;50.088;11.414;2022-07-23T01:08:19;19.40;94.60
24814;DHT22;12904;50.088;11.414;2022-07-23T01:10:47;19.40;94.70
24814;DHT22;12904;50.088;11.414;2022-07-23T01:13:13;19.30;95.20
24814;DHT22;12904;50.088;11.414;2022-07-23T01:15:39;19.20;95.40
24814;DHT22;12904;50.088;11.414;2022-07-23T01:18:06;19.10;95.70
24814;DHT22;12904;50.088;11.414;2022-07-23T01:20:33;19.10;96.50
24814;DHT22;12904;50.088;11.414;2022-07-23T01:22:59;19.00;97.30
24814;DHT22;12904;50.088;11.414;2022-07-23T01:25:25;18.90;97.80
24814;DHT22;12904;50.088;11.414;2022-07-23T01:27:52;18.80;98.40
24814;DHT22;12904;50.088;11.414;2022-07-23T01:30:19;18.70;98.90
24814;DHT22;12904;50.088;11.414;2022-07-23T01:32:45;18.70;99.70
24814;DHT22;12904;50.088;11.414;2022-07-23T01:35:10;18.70;99.90
24814;DHT22;12904;50.088;11.414;2022-07-23T01:37:36;18.70;99.90
24814;DHT22;12904;50.088;11.414;2022-07-23T01:40:03;18.70;99.90
24814;DHT22;12904;50.088;11.414;2022-07-23T01:42:29;18.70;99.90
24814;DHT22;12904;50.088;11.414;2022-07-23T01:44:55;18.70;99.90
24814;DHT22;12904;50.088;11.414;2022-07-23T01:47:21;18.70;99.90
24814;DHT22;12904;50.088;11.414;2022-07-23T01:49:46;18.70;99.90
24814;DHT22;12904;50.088;11.414;2022-07-23T01:52:12;18.70;99.90
24814;DHT22;12904;50.088;11.414;2022-07-23T01:54:38;18.70;99.90
24814;DHT22;12904;50.088;11.414;2022-07-23T01:57:05;18.70;99.90
24814;DHT22;12904;50.088;11.414;2022-07-23T01:59:31;18.70;99.90
24814;DHT22;12904;50.088;11.414;2022-07-23T02:01:57;18.70;99.90
24814;DHT22;12904;50.088;11.414;2022-07-23T02:04:25;18.70;99.90
24814;DHT22;12904;50.088;11.414;2022-07-23T02:06:52;18.70;99.90
24814;DHT22;12904;50.088;11.414;2022-07-23T02:09:18;18.60;99.90
24814;DHT22;12904;50.088;11.414;2022-07-23T02:11:45;18.60;99.90
24814;DHT22;12904;50.088;11.414;2022-07-23T02:14:11;18.60;99.90
24814;DHT22;12904;50.088;11.414;2022-07-23T02:16:36;18.60;99.90
24814;DHT22;12904;50.088;11.414;2022-07-23T02:19:03;18.60;99.90
24814;DHT22;12904;50.088;11.414;2022-07-23T02:21:29;18.60;99.90
24814;DHT22;12904;50.088;11.414;2022-07-23T02:23:54;18.60;99.90
24814;DHT22;12904;50.088;11.414;2022-07-23T02:26:20;18.60;99.90
24814;DHT22;12904;50.088;11.414;2022-07-23T02:28:45;18.60;99.90
24814;DHT22;12904;50.088;11.414;2022-07-23T02:31:11;18.60;99.90
24814;DHT22;12904;50.088;11.414;2022-07-23T02:33:37;18.60;99.90
24814;DHT22;12904;50.088;11.414;2022-07-23T02:36:02;18.60;99.90
24814;DHT22;12904;50.088;11.414;2022-07-23T02:38:28;18.60;99.90
24814;DHT22;12904;50.088;11.414;2022-07-23T02:40:54;18.60;99.90
24814;DHT22;12904;50.088;11.414;2022-07-23T02:43:19;18.70;99.90
24814;DHT22;12904;50.088;11.414;2022-07-23T02:45:45;18.70;99.90
24814;DHT22;12904;50.088;11.414;2022-07-23T02:48:11;18.70;99.90
24814;DHT22;12904;50.088;11.414;2022-07-23T02:50:39;18.60;99.90
24814;DHT22;12904;50.088;11.414;2022-07-23T02:53:05;18.50;99.90
24814;DHT22;12904;50.088;11.414;2022-07-23T02:55:31;18.30;99.90
24814;DHT22;12904;50.088;11.414;2022-07-23T02:57:57;18.30;99.90
24814;DHT22;12904;50.088;11.414;2022-07-23T03:00:23;18.10;99.90
24814;DHT22;12904;50.088;11.414;2022-07-23T03:02:48;18.00;99.90
24814;DHT22;12904;50.088;11.414;2022-07-23T03:05:14;17.90;99.90
24814;DHT22;12904;50.088;11.414;2022-07-23T03:07:40;17.70;99.90
24814;DHT22;12904;50.088;11.414;2022-07-23T03:10:06;17.70;99.90
24814;DHT22;12904;50.088;11.414;2022-07-23T03:12:32;17.60;99.90
24814;DHT22;12904;50.088;11.414;2022-07-23T03:14:57;17.50;99.90
24814;DHT22;12904;50.088;11.414;2022-07-23T03:17:23;17.40;99.90
24814;DHT22;12904;50.088;11.414;2022-07-23T03:19:49;17.30;99.90
24814;DHT22;12904;50.088;11.414;2022-07-23T03:22:14;17.30;99.90
24814;DHT22;12904;50.088;11.414;2022-07-23T03:24:40;17.20;99.90
24814;DHT22;12904;50.088;11.414;2022-07-23T03:27:26;17.20;99.90
24814;DHT22;12904;50.088;11.414;2022-07-23T03:29:53;17.20;99.90
24814;DHT22;12904;50.088;11.414;2022-07-23T03:32:20;17.20;99.90
24814;DHT22;12904;50.088;11.414;2022-07-23T03:34:46;17.20;99.90
24814;DHT22;12904;50.088;11.414;2022-07-23T03:37:12;17.20;99.90
24814;DHT22;12904;50.088;11.414;2022-07-23T03:39:38;17.30;99.90
24814;DHT22;12904;50.088;11.414;2022-07-23T03:42:03;17.40;99.90
24814;DHT22;12904;50.088;11.414;2022-07-23T03:44:29;17.40;99.90
24814;DHT22;12904;50.088;11.414;2022-07-23T03:46:55;17.40;99.90
24814;DHT22;12904;50.088;11.414;2022-07-23T03:49:20;17.40;99.90
24814;DHT22;12904;50.088;11.414;2022-07-23T03:51:46;17.40;99.90
24814;DHT22;12904;50.088;11.414;2022-07-23T03:54:12;17.40;99.90
24814;DHT22;12904;50.088;11.414;2022-07-23T03:56:38;17.30;99.90
24814;DHT22;12904;50.088;11.414;2022-07-23T03:59:04;17.40;99.90
24814;DHT22;12904;50.088;11.414;2022-07-23T04:01:29;17.40;99.90
24814;DHT22;12904;50.088;11.414;2022-07-23T04:03:55;17.40;99.90
24814;DHT22;12904;50.088;11.414;2022-07-23T04:06:20;17.40;99.90
24814;DHT22;12904;50.088;11.414;2022-07-23T04:08:46;17.40;99.90
24814;DHT22;12904;50.088;11.414;2022-07-23T04:11:12;17.50;99.90
24814;DHT22;12904;50.088;11.414;2022-07-23T04:13:38;17.50;99.90
24814;DHT22;12904;50.088;11.414;2022-07-23T04:16:03;17.50;99.90
24814;DHT22;12904;50.088;11.414;2022-07-23T04:18:29;17.60;99.90
24814;DHT22;12904;50.088;11.414;2022-07-23T04:20:55;17.60;99.90
24814;DHT22;12904;50.088;11.414;2022-07-23T04:23:20;17.70;99.90
24814;DHT22;12904;50.088;11.414;2022-07-23T04:25:46;17.60;99.90
24814;DHT22;12904;50.088;11.414;2022-07-23T04:28:12;17.70;99.90
24814;DHT22;12904;50.088;11.414;2022-07-23T04:30:38;17.70;99.90
24814;DHT22;12904;50.088;11.414;2022-07-23T04:33:03;17.70;99.90
24814;DHT22;12904;50.088;11.414;2022-07-23T04:35:33;17.70;99.90
24814;DHT22;12904;50.088;11.414;2022-07-23T04:37:59;17.60;99.90
24814;DHT22;12904;50.088;11.414;2022-07-23T04:40:25;17.60;99.90
24814;DHT22;12904;50.088;11.414;2022-07-23T04:42:51;17.60;99.90
24814;DHT22;12904;50.088;11.414;2022-07-23T04:45:16;17.70;99.90
24814;DHT22;12904;50.088;11.414;2022-07-23T04:47:42;17.80;99.90
24814;DHT22;12904;50.088;11.414;2022-07-23T04:50:08;18.00;99.90
24814;DHT22;12904;50.088;11.414;2022-07-23T04:52:34;18.30;99.90
24814;DHT22;12904;50.088;11.414;2022-07-23T04:54:59;18.60;99.90
24814;DHT22;12904;50.088;11.414;2022-07-23T04:57:25;18.90;99.90
24814;DHT22;12904;50.088;11.414;2022-07-23T04:59:51;19.20;99.90
24814;DHT22;12904;50.088;11.414;2022-07-23T05:02:16;19.40;99.90
24814;DHT22;12904;50.088;11.414;2022-07-23T05:04:42;19.60;99.90
24814;DHT22;12904;50.088;11.414;2022-07-23T05:07:07;19.80;99.90
24814;DHT22;12904;50.088;11.414;2022-07-23T05:09:33;19.90;99.90
24814;DHT22;12904;50.088;11.414;2022-07-23T05:12:00;20.00;99.90
24814;DHT22;12904;50.088;11.414;2022-07-23T05:14:25;20.00;99.90
24814;DHT22;12904;50.088;11.414;2022-07-23T05:16:51;20.00;99.90
24814;DHT22;12904;50.088;11.414;2022-07-23T05:19:16;20.10;99.90
24814;DHT22;12904;50.088;11.414;2022-07-23T05:21:42;20.20;99.90
24814;DHT22;12904;50.088;11.414;2022-07-23T05:24:08;20.30;99.90
24814;DHT22;12904;50.088;11.414;2022-07-23T05:26:33;20.50;99.90
24814;DHT22;12904;50.088;11.414;2022-07-23T05:28:59;20.80;99.90
24814;DHT22;12904;50.088;11.414;2022-07-23T05:31:25;21.10;99.90
24814;DHT22;12904;50.088;11.414;2022-07-23T05:33:50;21.40;99.90
24814;DHT22;12904;50.088;11.414;2022-07-23T05:36:16;21.70;99.90
24814;DHT22;12904;50.088;11.414;2022-07-23T05:38:42;22.30;99.90
24814;DHT22;12904;50.088;11.414;2022-07-23T05:41:07;23.20;96.80
24814;DHT22;12904;50.088;11.414;2022-07-23T05:43:33;24.20;92.90
24814;DHT22;12904;50.088;11.414;2022-07-23T05:45:59;25.20;90.20
24814;DHT22;12904;50.088;11.414;2022-07-23T05:48:24;26.10;83.80
24814;DHT22;12904;50.088;11.414;2022-07-23T05:50:50;26.70;79.90
24814;DHT22;12904;50.088;11.414;2022-07-23T05:53:16;27.60;75.40
24814;DHT22;12904;50.088;11.414;2022-07-23T05:55:41;28.30;72.60
24814;DHT22;12904;50.088;11.414;2022-07-23T05:58:07;28.80;70.40
24814;DHT22;12904;50.088;11.414;2022-07-23T06:00:34;29.00;67.80
24814;DHT22;12904;50.088;11.414;2022-07-23T06:03:00;28.70;67.00
24814;DHT22;12904;50.088;11.414;2022-07-23T06:05:26;28.10;68.00
24814;DHT22;12904;50.088;11.414;2022-07-23T06:07:52;27.90;69.10
24814;DHT22;12904;50.088;11.414;2022-07-23T06:10:18;28.20;67.40
24814;DHT22;12904;50.088;11.414;2022-07-23T06:12:44;28.60;66.20
24814;DHT22;12904;50.088;11.414;2022-07-23T06:15:13;28.90;64.10
24814;DHT22;12904;50.088;11.414;2022-07-23T06:17:39;28.70;64.10
24814;DHT22;12904;50.088;11.414;2022-07-23T06:20:07;28.30;64.70
24814;DHT22;12904;50.088;11.414;2022-07-23T06:22:33;27.70;66.30
24814;DHT22;12904;50.088;11.414;2022-07-23T06:24:58;27.30;68.10
24814;DHT22;12904;50.088;11.414;2022-07-23T06:27:24;26.80;66.80
24814;DHT22;12904;50.088;11.414;2022-07-23T06:29:49;26.40;67.80
24814;DHT22;12904;50.088;11.414;2022-07-23T06:32:15;26.20;70.10
24814;DHT22;12904;50.088;11.414;2022-07-23T06:34:41;26.00;71.20
24814;DHT22;12904;50.088;11.414;2022-07-23T06:37:06;26.10;71.10
24814;DHT22;12904;50.088;11.414;2022-07-23T06:39:33;26.20;71.40
24814;DHT22;12904;50.088;11.414;2022-07-23T06:41:58;26.50;72.50
24814;DHT22;12904;50.088;11.414;2022-07-23T06:44:24;27.40;70.70
24814;DHT22;12904;50.088;11.414;2022-07-23T06:46:50;28.30;66.90
24814;DHT22;12904;50.088;11.414;2022-07-23T06:49:15;28.60;66.00
24814;DHT22;12904;50.088;11.414;2022-07-23T06:51:41;28.70;64.40
24814;DHT22;12904;50.088;11.414;2022-07-23T06:54:07;29.40;64.30
24814;DHT22;12904;50.088;11.414;2022-07-23T06:56:32;30.30;62.20
24814;DHT22;12904;50.088;11.414;2022-07-23T06:58:58;31.00;60.10
24814;DHT22;12904;50.088;11.414;2022-07-23T07:01:23;30.90;58.90
24814;DHT22;12904;50.088;11.414;2022-07-23T07:03:49;30.50;59.70
24814;DHT22;12904;50.088;11.414;2022-07-23T07:06:15;30.10;61.40
24814;DHT22;12904;50.088;11.414;2022-07-23T07:08:41;30.30;61.10
24814;DHT22;12904;50.088;11.414;2022-07-23T07:11:08;31.00;58.10
24814;DHT22;12904;50.088;11.414;2022-07-23T07:13:34;32.60;55.00
24814;DHT22;12904;50.088;11.414;2022-07-23T07:15:59;33.60;51.90
24814;DHT22;12904;50.088;11.414;2022-07-23T07:18:25;33.80;50.70
24814;DHT22;12904;50.088;11.414;2022-07-23T07:20:51;34.40;49.90
24814;DHT22;12904;50.088;11.414;2022-07-23T07:23:16;35.10;49.30
24814;DHT22;12904;50.088;11.414;2022-07-23T07:25:42;36.20;46.50
24814;DHT22;12904;50.088;11.414;2022-07-23T07:28:08;37.20;44.70
24814;DHT22;12904;50.088;11.414;2022-07-23T07:30:34;37.80;43.80
24814;DHT22;12904;50.088;11.414;2022-07-23T07:33:00;38.50;42.90
24814;DHT22;12904;50.088;11.414;2022-07-23T07:35:25;39.10;41.10
24814;DHT22;12904;50.088;11.414;2022-07-23T07:37:51;39.30;40.70
24814;DHT22;12904;50.088;11.414;2022-07-23T07:40:17;39.00;40.70
24814;DHT22;12904;50.088;11.414;2022-07-23T07:42:50;38.00;41.70
24814;DHT22;12904;50.088;11.414;2022-07-23T07:45:16;37.10;42.80
24814;DHT22;12904;50.088;11.414;2022-07-23T07:47:42;36.20;44.70
24814;DHT22;12904;50.088;11.414;2022-07-23T07:50:09;35.30;46.40
24814;DHT22;12904;50.088;11.414;2022-07-23T07:52:35;34.30;47.70
24814;DHT22;12904;50.088;11.414;2022-07-23T07:55:06;33.60;49.50
24814;DHT22;12904;50.088;11.414;2022-07-23T07:57:31;33.00;50.70
24814;DHT22;12904;50.088;11.414;2022-07-23T07:59:57;32.40;51.90
24814;DHT22;12904;50.088;11.414;2022-07-23T08:02:23;31.60;52.80
24814;DHT22;12904;50.088;11.414;2022-07-23T08:04:49;31.00;54.40
24814;DHT22;12904;50.088;11.414;2022-07-23T08:07:15;30.40;55.40
24814;DHT22;12904;50.088;11.414;2022-07-23T08:09:41;29.80;56.60
24814;DHT22;12904;50.088;11.414;2022-07-23T08:12:06;29.30;58.30
24814;DHT22;12904;50.088;11.414;2022-07-23T08:14:32;28.80;59.10
24814;DHT22;12904;50.088;11.414;2022-07-23T08:16:58;28.50;59.90
24814;DHT22;12904;50.088;11.414;2022-07-23T08:19:24;28.10;61.50
24814;DHT22;12904;50.088;11.414;2022-07-23T08:21:49;27.70;62.40
24814;DHT22;12904;50.088;11.414;2022-07-23T08:24:15;27.50;62.70
24814;DHT22;12904;50.088;11.414;2022-07-23T08:26:41;27.20;63.80
24814;DHT22;12904;50.088;11.414;2022-07-23T08:29:07;26.80;64.80
24814;DHT22;12904;50.088;11.414;2022-07-23T08:31:32;26.60;65.20
24814;DHT22;12904;50.088;11.414;2022-07-23T08:33:59;26.50;66.20
24814;DHT22;12904;50.088;11.414;2022-07-23T08:36:25;26.40;66.80
24814;DHT22;12904;50.088;11.414;2022-07-23T08:38:53;26.70;66.40
24814;DHT22;12904;50.088;11.414;2022-07-23T08:41:19;27.10;65.10
24814;DHT22;12904;50.088;11.414;2022-07-23T08:43:46;27.60;64.30
24814;DHT22;12904;50.088;11.414;2022-07-23T08:46:13;28.00;62.70
24814;DHT22;12904;50.088;11.414;2022-07-23T08:48:39;28.60;61.10
24814;DHT22;12904;50.088;11.414;2022-07-23T08:51:06;28.80;61.10
24814;DHT22;12904;50.088;11.414;2022-07-23T08:53:33;28.70;60.30
24814;DHT22;12904;50.088;11.414;2022-07-23T08:56:02;28.40;60.70
24814;DHT22;12904;50.088;11.414;2022-07-23T08:58:29;28.00;61.80
24814;DHT22;12904;50.088;11.414;2022-07-23T09:00:55;27.70;63.70
24814;DHT22;12904;50.088;11.414;2022-07-23T09:03:32;27.30;66.90
24814;DHT22;12904;50.088;11.414;2022-07-23T09:05:59;27.00;71.40
24814;DHT22;12904;50.088;11.414;2022-07-23T09:08:40;26.80;73.80
24814;DHT22;12904;50.088;11.414;2022-07-23T09:11:17;26.60;72.90
24814;DHT22;12904;50.088;11.414;2022-07-23T09:16:17;27.10;71.50
24814;DHT22;12904;50.088;11.414;2022-07-23T09:19:04;27.40;70.70
24814;DHT22;12904;50.088;11.414;2022-07-23T09:21:36;27.80;69.30
24814;DHT22;12904;50.088;11.414;2022-07-23T09:24:07;28.40;65.50
24814;DHT22;12904;50.088;11.414;2022-07-23T09:26:44;29.10;62.40
24814;DHT22;12904;50.088;11.414;2022-07-23T09:29:23;29.70;61.60
24814;DHT22;12904;50.088;11.414;2022-07-23T09:31:58;30.60;58.80
24814;DHT22;12904;50.088;11.414;2022-07-23T09:34:28;32.00;56.70
24814;DHT22;12904;50.088;11.414;2022-07-23T09:36:57;33.60;54.10
24814;DHT22;12904;50.088;11.414;2022-07-23T09:39:27;35.20;49.60
24814;DHT22;12904;50.088;11.414;2022-07-23T09:41:53;36.60;48.40
24814;DHT22;12904;50.088;11.414;2022-07-23T09:44:20;38.00;43.60
24814;DHT22;12904;50.088;11.414;2022-07-23T09:46:50;38.60;42.40
24814;DHT22;12904;50.088;11.414;2022-07-23T09:49:20;38.40;43.60
24814;DHT22;12904;50.088;11.414;2022-07-23T09:56:55;38.10;43.50
24814;DHT22;12904;50.088;11.414;2022-07-23T09:59:33;38.60;42.40
24814;DHT22;12904;50.088;11.414;2022-07-23T10:02:00;38.90;41.10
24814;DHT22;12904;50.088;11.414;2022-07-23T10:04:28;39.00;40.50
24814;DHT22;12904;50.088;11.414;2022-07-23T10:06:56;39.40;41.00
24814;DHT22;12904;50.088;11.414;2022-07-23T10:09:26;38.80;40.60
24814;DHT22;12904;50.088;11.414;2022-07-23T10:12:00;39.30;41.70
24814;DHT22;12904;50.088;11.414;2022-07-23T10:14:33;40.40;40.30
24814;DHT22;12904;50.088;11.414;2022-07-23T10:17:01;41.10;38.20
24814;DHT22;12904;50.088;11.414;2022-07-23T10:19:27;40.60;38.20
24814;DHT22;12904;50.088;11.414;2022-07-23T10:22:14;39.70;39.00
24814;DHT22;12904;50.088;11.414;2022-07-23T10:25:02;37.80;40.90
24814;DHT22;12904;50.088;11.414;2022-07-23T10:38:33;35.00;47.70
24814;DHT22;12904;50.088;11.414;2022-07-23T10:41:03;35.10;46.80
24814;DHT22;12904;50.088;11.414;2022-07-23T10:43:29;35.30;46.40
24814;DHT22;12904;50.088;11.414;2022-07-23T10:45:57;35.30;46.30
24814;DHT22;12904;50.088;11.414;2022-07-23T10:48:41;35.20;46.50
24814;DHT22;12904;50.088;11.414;2022-07-23T10:51:17;34.90;46.50
24814;DHT22;12904;50.088;11.414;2022-07-23T10:54:00;34.50;47.80
24814;DHT22;12904;50.088;11.414;2022-07-23T10:59:20;35.50;45.40
24814;DHT22;12904;50.088;11.414;2022-07-23T11:01:45;36.20;45.60
24814;DHT22;12904;50.088;11.414;2022-07-23T11:04:11;36.00;45.00
24814;DHT22;12904;50.088;11.414;2022-07-23T11:17:23;35.20;47.00
24814;DHT22;12904;50.088;11.414;2022-07-23T11:22:39;33.90;48.30
24814;DHT22;12904;50.088;11.414;2022-07-23T11:25:05;33.10;49.90
24814;DHT22;12904;50.088;11.414;2022-07-23T11:27:44;32.70;50.90
24814;DHT22;12904;50.088;11.414;2022-07-23T11:30:36;32.70;51.60
24814;DHT22;12904;50.088;11.414;2022-07-23T11:35:35;33.20;50.90
24814;DHT22;12904;50.088;11.414;2022-07-23T11:40:34;33.40;50.40
24814;DHT22;12904;50.088;11.414;2022-07-23T11:43:03;33.50;51.00
24814;DHT22;12904;50.088;11.414;2022-07-23T11:45:37;33.60;50.60
24814;DHT22;12904;50.088;11.414;2022-07-23T11:48:05;33.70;49.90
24814;DHT22;12904;50.088;11.414;2022-07-23T11:50:31;33.60;49.80
24814;DHT22;12904;50.088;11.414;2022-07-23T11:52:58;33.70;49.80
24814;DHT22;12904;50.088;11.414;2022-07-23T11:55:23;33.70;50.00
24814;DHT22;12904;50.088;11.414;2022-07-23T11:57:52;33.50;49.50
24814;DHT22;12904;50.088;11.414;2022-07-23T12:00:24;33.20;50.10
24814;DHT22;12904;50.088;11.414;2022-07-23T12:02:52;32.90;50.30
24814;DHT22;12904;50.088;11.414;2022-07-23T12:05:23;32.80;50.60
24814;DHT22;12904;50.088;11.414;2022-07-23T12:07:50;32.90;51.20
24814;DHT22;12904;50.088;11.414;2022-07-23T12:10:28;33.10;50.50
24814;DHT22;12904;50.088;11.414;2022-07-23T12:12:56;33.30;49.40
24814;DHT22;12904;50.088;11.414;2022-07-23T12:15:30;33.40;49.60
24814;DHT22;12904;50.088;11.414;2022-07-23T12:17:59;33.60;49.30
24814;DHT22;12904;50.088;11.414;2022-07-23T12:20:28;33.70;49.80
24814;DHT22;12904;50.088;11.414;2022-07-23T12:22:59;34.00;49.80
24814;DHT22;12904;50.088;11.414;2022-07-23T12:25:31;34.20;47.90
24814;DHT22;12904;50.088;11.414;2022-07-23T12:28:06;34.20;48.10
24814;DHT22;12904;50.088;11.414;2022-07-23T12:30:59;34.20;47.90
24814;DHT22;12904;50.088;11.414;2022-07-23T12:35:59;33.80;48.70
24814;DHT22;12904;50.088;11.414;2022-07-23T12:38:28;33.70;48.40
24814;DHT22;12904;50.088;11.414;2022-07-23T12:40:55;34.00;47.90
24814;DHT22;12904;50.088;11.414;2022-07-23T12:45:53;34.60;46.40
24814;DHT22;12904;50.088;11.414;2022-07-23T12:48:31;34.90;45.50
24814;DHT22;12904;50.088;11.414;2022-07-23T12:51:00;35.30;46.10
24814;DHT22;12904;50.088;11.414;2022-07-23T12:53:31;35.10;46.60
24814;DHT22;12904;50.088;11.414;2022-07-23T13:01:09;34.50;48.00
24814;DHT22;12904;50.088;11.414;2022-07-23T13:03:40;34.60;47.70
24814;DHT22;12904;50.088;11.414;2022-07-23T13:06:08;34.50;47.00
24814;DHT22;12904;50.088;11.414;2022-07-23T13:08:36;34.50;47.60
24814;DHT22;12904;50.088;11.414;2022-07-23T13:11:04;34.70;47.20
24814;DHT22;12904;50.088;11.414;2022-07-23T13:13:32;34.70;46.90
24814;DHT22;12904;50.088;11.414;2022-07-23T13:15:59;34.70;46.30
24814;DHT22;12904;50.088;11.414;2022-07-23T13:18:26;34.80;46.20
24814;DHT22;12904;50.088;11.414;2022-07-23T13:20:53;34.90;45.90
24814;DHT22;12904;50.088;11.414;2022-07-23T13:23:19;35.10;45.90
24814;DHT22;12904;50.088;11.414;2022-07-23T13:25:46;34.90;46.00
24814;DHT22;12904;50.088;11.414;2022-07-23T13:28:13;34.30;46.70
24814;DHT22;12904;50.088;11.414;2022-07-23T13:30:40;33.70;47.70
24814;DHT22;12904;50.088;11.414;2022-07-23T13:33:06;33.50;48.70
24814;DHT22;12904;50.088;11.414;2022-07-23T13:35:34;33.30;49.00
24814;DHT22;12904;50.088;11.414;2022-07-23T13:37:59;33.50;50.10
24814;DHT22;12904;50.088;11.414;2022-07-23T13:40:25;33.60;49.30
24814;DHT22;12904;50.088;11.414;2022-07-23T13:42:51;33.30;48.80
24814;DHT22;12904;50.088;11.414;2022-07-23T13:45:19;32.80;49.40
24814;DHT22;12904;50.088;11.414;2022-07-23T13:47:45;32.50;49.50
24814;DHT22;12904;50.088;11.414;2022-07-23T13:50:11;32.30;50.10
24814;DHT22;12904;50.088;11.414;2022-07-23T13:52:37;31.90;51.20
24814;DHT22;12904;50.088;11.414;2022-07-23T13:55:05;31.40;52.20
24814;DHT22;12904;50.088;11.414;2022-07-23T13:57:31;31.00;53.70
24814;DHT22;12904;50.088;11.414;2022-07-23T13:59:58;30.60;54.40
24814;DHT22;12904;50.088;11.414;2022-07-23T14:02:23;30.20;55.40
24814;DHT22;12904;50.088;11.414;2022-07-23T14:04:51;30.20;56.30
24814;DHT22;12904;50.088;11.414;2022-07-23T14:07:17;30.50;55.90
24814;DHT22;12904;50.088;11.414;2022-07-23T14:09:43;30.80;55.30
24814;DHT22;12904;50.088;11.414;2022-07-23T14:12:09;31.10;54.70
24814;DHT22;12904;50.088;11.414;2022-07-23T14:14:35;31.30;53.60
24814;DHT22;12904;50.088;11.414;2022-07-23T14:17:01;31.40;53.00
24814;DHT22;12904;50.088;11.414;2022-07-23T14:19:27;31.20;53.20
24814;DHT22;12904;50.088;11.414;2022-07-23T14:21:53;31.20;54.10
24814;DHT22;12904;50.088;11.414;2022-07-23T14:24:18;31.30;54.20
24814;DHT22;12904;50.088;11.414;2022-07-23T14:26:44;31.50;53.80
24814;DHT22;12904;50.088;11.414;2022-07-23T14:29:10;31.70;53.50
24814;DHT22;12904;50.088;11.414;2022-07-23T14:31:35;31.90;52.90
24814;DHT22;12904;50.088;11.414;2022-07-23T14:34:01;31.90;52.80
24814;DHT22;12904;50.088;11.414;2022-07-23T14:36:27;32.10;52.40
24814;DHT22;12904;50.088;11.414;2022-07-23T14:38:53;32.20;51.30
24814;DHT22;12904;50.088;11.414;2022-07-23T14:41:18;32.10;51.40
24814;DHT22;12904;50.088;11.414;2022-07-23T14:43:44;31.90;51.60
24814;DHT22;12904;50.088;11.414;2022-07-23T14:46:11;31.80;52.10
24814;DHT22;12904;50.088;11.414;2022-07-23T14:48:37;31.70;51.30
24814;DHT22;12904;50.088;11.414;2022-07-23T14:51:03;31.70;51.50
24814;DHT22;12904;50.088;11.414;2022-07-23T14:53:29;31.80;50.90
24814;DHT22;12904;50.088;11.414;2022-07-23T14:55:55;31.80;52.20
24814;DHT22;12904;50.088;11.414;2022-07-23T14:58:23;31.50;51.30
24814;DHT22;12904;50.088;11.414;2022-07-23T15:00:48;31.30;52.00
24814;DHT22;12904;50.088;11.414;2022-07-23T15:03:14;31.10;52.80
24814;DHT22;12904;50.088;11.414;2022-07-23T15:05:41;30.90;52.80
24814;DHT22;12904;50.088;11.414;2022-07-23T15:08:06;30.60;53.10
24814;DHT22;12904;50.088;11.414;2022-07-23T15:10:35;30.50;54.00
24814;DHT22;12904;50.088;11.414;2022-07-23T15:13:01;30.60;54.70
24814;DHT22;12904;50.088;11.414;2022-07-23T15:15:26;30.80;54.20
24814;DHT22;12904;50.088;11.414;2022-07-23T15:17:52;30.90;53.80
24814;DHT22;12904;50.088;11.414;2022-07-23T15:20:18;31.00;53.40
24814;DHT22;12904;50.088;11.414;2022-07-23T15:22:44;31.10;52.90
24814;DHT22;12904;50.088;11.414;2022-07-23T15:25:11;31.20;52.70
24814;DHT22;12904;50.088;11.414;2022-07-23T15:27:40;31.10;52.50
24814;DHT22;12904;50.088;11.414;2022-07-23T15:30:06;31.00;52.40
24814;DHT22;12904;50.088;11.414;2022-07-23T15:32:32;30.80;52.70
24814;DHT22;12904;50.088;11.414;2022-07-23T15:34:57;30.80;52.70
24814;DHT22;12904;50.088;11.414;2022-07-23T15:37:23;30.70;52.70
24814;DHT22;12904;50.088;11.414;2022-07-23T15:39:49;30.60;52.70
24814;DHT22;12904;50.088;11.414;2022-07-23T15:42:15;30.50;52.80
24814;DHT22;12904;50.088;11.414;2022-07-23T15:44:42;30.40;53.90
24814;DHT22;12904;50.088;11.414;2022-07-23T15:47:13;30.50;53.30
24814;DHT22;12904;50.088;11.414;2022-07-23T15:49:39;30.50;53.30
24814;DHT22;12904;50.088;11.414;2022-07-23T15:52:05;30.40;52.60
24814;DHT22;12904;50.088;11.414;2022-07-23T15:54:30;30.30;53.10
24814;DHT22;12904;50.088;11.414;2022-07-23T15:56:56;30.30;52.50
24814;DHT22;12904;50.088;11.414;2022-07-23T15:59:22;30.20;52.00
24814;DHT22;12904;50.088;11.414;2022-07-23T16:01:48;30.10;51.60
24814;DHT22;12904;50.088;11.414;2022-07-23T16:04:13;30.10;52.00